Time;durP1;ratioP1;P1;durP2;ratioP2;P2;SDS_P1;SDS_P2;PMS_P1;PMS_P2;Temp;Humidity;BMP_temperature;BMP_pressure;BME280_temperature;BME280_humidity;BME280_pressure;Samples;Min_cycle;Max_cycle;Signal;HPM_P1;HPM_P2
2023/01/21 00:01:49;;;;;;;34.40;17.77;;;;;;;;;;5025711;28;20135;-74
2023/01/21 00:04:15;;;;;;;34.47;17.92;;;;;;;;;;5032184;28;20081;-74
2023/01/21 00:06:41;;;;;;;36.47;18.60;;;;;;;;;;5012868;28;20049;-74
2023/01/21 00:09:08;;;;;;;44.65;20.83;;;;;;;;;;5021994;28;20080;-74
2023/01/21 00:11:34;;;;;;;44.55;20.45;;;;;;;;;;5022555;28;20038;-74
2023/01/21 00:14:00;;;;;;;48.60;21.92;;;;;;;;;;5032460;28;20124;-74
2023/01/21 00:16:26;;;;;;;54.33;23.55;;;;;;;;;;5023216;28;20045;-74
2023/01/21 00:18:52;;;;;;;44.13;21.65;;;;;;;;;;5027643;28;20045;-74
2023/01/21 00:21:18;;;;;;;47.42;23.02;;;;;;;;;;5025918;28;20052;-74
2023/01/21 00:23:45;;;;;;;50.03;24.17;;;;;;;;;;5028150;28;20160;-74
2023/01/21 00:26:13;;;;;;;49.05;22.55;;;;;;;;;;5029294;28;20052;-74
2023/01/21 00:28:42;;;;;;;43.03;21.10;;;;;;;;;;5033043;28;20055;-74
2023/01/21 00:31:09;;;;;;;44.30;20.70;;;;;;;;;;5029839;28;20046;-74
2023/01/21 00:33:36;;;;;;;44.05;21.25;;;;;;;;;;5032994;28;20121;-74
2023/01/21 00:36:06;;;;;;;43.88;21.55;;;;;;;;;;5030792;28;20046;-74
2023/01/21 00:38:32;;;;;;;43.28;21.33;;;;;;;;;;5033110;28;20192;-74
2023/01/21 00:41:01;;;;;;;34.88;18.45;;;;;;;;;;5032395;28;20124;-74
2023/01/21 00:43:27;;;;;;;39.17;18.65;;;;;;;;;;5033184;28;20117;-74
2023/01/21 00:45:53;;;;;;;36.85;18.08;;;;;;;;;;5011494;28;20045;-74
2023/01/21 00:48:20;;;;;;;37.42;18.23;;;;;;;;;;5021979;28;20046;-74
2023/01/21 00:50:46;;;;;;;40.00;17.33;;;;;;;;;;5019084;28;20057;-74
2023/01/21 00:53:12;;;;;;;38.38;18.65;;;;;;;;;;5036069;28;20103;-74
2023/01/21 00:55:41;;;;;;;35.30;18.08;;;;;;;;;;5033251;28;20129;-73
2023/01/21 00:58:07;;;;;;;42.85;18.85;;;;;;;;;;5016506;28;20384;-74
2023/01/21 01:00:33;;;;;;;39.63;19.20;;;;;;;;;;5030050;28;20489;-74
2023/01/21 01:02:59;;;;;;;44.50;19.42;;;;;;;;;;5016986;28;20046;-74
2023/01/21 01:05:25;;;;;;;38.50;18.20;;;;;;;;;;5015607;28;20481;-74
2023/01/21 01:07:51;;;;;;;38.28;18.38;;;;;;;;;;5016549;28;20133;-74
2023/01/21 01:10:17;;;;;;;39.88;19.75;;;;;;;;;;5002362;28;20366;-74
2023/01/21 01:12:43;;;;;;;44.20;19.00;;;;;;;;;;5015732;28;20042;-73
2023/01/21 01:15:10;;;;;;;47.65;22.45;;;;;;;;;;5016784;28;20038;-74
2023/01/21 01:17:38;;;;;;;42.55;18.75;;;;;;;;;;5017980;28;20077;-74
2023/01/21 01:20:04;;;;;;;46.05;20.92;;;;;;;;;;5021123;28;20054;-74
2023/01/21 01:22:30;;;;;;;45.90;21.55;;;;;;;;;;5051036;28;20080;-74
2023/01/21 01:24:56;;;;;;;44.50;21.65;;;;;;;;;;5017061;28;20037;-74
2023/01/21 01:27:22;;;;;;;43.22;19.75;;;;;;;;;;5022662;28;20088;-74
2023/01/21 01:29:49;;;;;;;43.80;19.95;;;;;;;;;;5032782;28;20473;-74
2023/01/21 01:32:15;;;;;;;49.85;23.08;;;;;;;;;;5016432;28;20489;-74
2023/01/21 01:34:41;;;;;;;38.85;19.63;;;;;;;;;;5015800;28;20038;-74
2023/01/21 01:37:07;;;;;;;39.58;20.20;;;;;;;;;;5032806;28;20084;-74
2023/01/21 01:39:33;;;;;;;44.08;20.48;;;;;;;;;;5016622;28;20393;-74
2023/01/21 01:41:59;;;;;;;44.33;20.85;;;;;;;;;;5015223;28;20085;-74
2023/01/21 01:44:43;;;;;;;47.28;22.52;;;;;;;;;;5026660;28;20046;-74
2023/01/21 01:47:10;;;;;;;42.83;19.77;;;;;;;;;;5034433;28;20054;-74
2023/01/21 01:49:36;;;;;;;41.45;19.27;;;;;;;;;;5033812;28;20050;-74
2023/01/21 01:52:04;;;;;;;45.13;21.00;;;;;;;;;;5019992;28;20119;-74
2023/01/21 01:54:51;;;;;;;42.28;20.88;;;;;;;;;;5035866;28;20048;-73
2023/01/21 01:57:20;;;;;;;40.40;19.15;;;;;;;;;;5018060;28;20165;-74
2023/01/21 01:59:46;;;;;;;44.03;19.42;;;;;;;;;;5016598;28;20242;-74
2023/01/21 02:02:14;;;;;;;37.83;19.40;;;;;;;;;;5015679;28;20050;-74
2023/01/21 02:04:46;;;;;;;43.55;18.98;;;;;;;;;;5027789;28;20072;-74
2023/01/21 02:07:12;;;;;;;40.55;18.90;;;;;;;;;;5035585;28;20119;-74
2023/01/21 02:09:39;;;;;;;39.97;19.73;;;;;;;;;;5035324;28;20041;-74
2023/01/21 02:12:06;;;;;;;40.40;20.42;;;;;;;;;;5034505;28;20052;-74
2023/01/21 02:14:32;;;;;;;46.63;22.40;;;;;;;;;;5033732;28;20045;-74
2023/01/21 02:17:19;;;;;;;45.58;22.35;;;;;;;;;;5030886;28;20041;-74
2023/01/21 02:19:45;;;;;;;48.75;22.23;;;;;;;;;;5026659;28;20417;-74
2023/01/21 02:22:29;;;;;;;51.58;24.58;;;;;;;;;;5015394;28;20110;-74
2023/01/21 02:25:07;;;;;;;49.35;22.15;;;;;;;;;;5030119;28;20088;-74
2023/01/21 02:28:12;;;;;;;46.65;21.85;;;;;;;;;;5033689;28;20491;-74
2023/01/21 02:30:56;;;;;;;50.58;22.92;;;;;;;;;;4993057;28;20038;-74
2023/01/21 02:33:25;;;;;;;46.15;20.85;;;;;;;;;;4993253;28;20043;-73
2023/01/21 02:35:58;;;;;;;45.22;20.67;;;;;;;;;;4993677;28;20062;-74
2023/01/21 02:38:43;;;;;;;45.47;20.50;;;;;;;;;;4993268;28;20069;-74
2023/01/21 02:41:14;;;;;;;44.20;21.38;;;;;;;;;;4993404;28;20492;-74
2023/01/21 02:44:06;;;;;;;45.38;21.92;;;;;;;;;;4976255;28;20129;-74
2023/01/21 02:46:49;;;;;;;45.30;21.92;;;;;;;;;;4993196;28;20046;-74
2023/01/21 02:49:24;;;;;;;45.17;22.20;;;;;;;;;;4992899;28;20046;-74
2023/01/21 02:51:50;;;;;;;45.63;22.03;;;;;;;;;;4992782;28;20077;-74
2023/01/21 02:54:35;;;;;;;48.10;23.00;;;;;;;;;;4976133;28;20062;-74
2023/01/21 02:57:01;;;;;;;48.63;23.02;;;;;;;;;;4992439;28;20069;-74
2023/01/21 02:59:28;;;;;;;40.42;20.10;;;;;;;;;;4992744;28;20497;-74
2023/01/21 03:02:03;;;;;;;44.20;21.23;;;;;;;;;;5008331;28;20458;-74
2023/01/21 03:04:36;;;;;;;45.30;20.85;;;;;;;;;;5014493;28;20046;-74
2023/01/21 03:07:14;;;;;;;44.45;21.02;;;;;;;;;;5028996;28;20096;-74
2023/01/21 03:09:41;;;;;;;43.03;20.95;;;;;;;;;;5026169;28;20056;-74
2023/01/21 03:12:25;;;;;;;44.50;21.45;;;;;;;;;;5014731;28;20057;-74
2023/01/21 03:17:36;;;;;;;45.03;21.45;;;;;;;;;;5032194;28;20051;-74
2023/01/21 03:20:08;;;;;;;42.05;20.92;;;;;;;;;;5025480;28;20492;-74
2023/01/21 03:22:35;;;;;;;44.60;21.60;;;;;;;;;;5014692;28;20129;-74
2023/01/21 03:25:03;;;;;;;40.63;20.73;;;;;;;;;;5014398;28;20077;-74
2023/01/21 03:27:31;;;;;;;41.97;20.05;;;;;;;;;;5014428;28;20046;-74
2023/01/21 03:30:00;;;;;;;41.38;19.27;;;;;;;;;;5014244;28;20543;-74
2023/01/21 03:32:28;;;;;;;48.00;20.25;;;;;;;;;;5013446;28;20480;-74
2023/01/21 03:34:55;;;;;;;45.60;20.38;;;;;;;;;;5018293;28;20061;-74
2023/01/21 03:37:42;;;;;;;42.05;19.83;;;;;;;;;;5015641;28;20413;-74
2023/01/21 03:40:17;;;;;;;42.20;19.80;;;;;;;;;;5029700;28;20491;-74
2023/01/21 03:42:44;;;;;;;42.55;20.10;;;;;;;;;;5019332;28;20054;-74
2023/01/21 03:45:10;;;;;;;49.40;20.75;;;;;;;;;;5028816;28;20124;-73
2023/01/21 03:47:37;;;;;;;45.17;20.48;;;;;;;;;;5013765;28;20134;-74
2023/01/21 03:50:09;;;;;;;42.00;20.25;;;;;;;;;;5014431;28;20041;-73
2023/01/21 03:52:38;;;;;;;43.22;21.30;;;;;;;;;;5013895;28;20045;-74
2023/01/21 03:55:04;;;;;;;42.90;20.42;;;;;;;;;;5012742;28;20042;-74
2023/01/21 03:57:31;;;;;;;45.97;20.05;;;;;;;;;;5027874;28;20041;-74
2023/01/21 03:59:57;;;;;;;46.00;21.70;;;;;;;;;;5033688;28;20053;-74
2023/01/21 04:02:23;;;;;;;45.70;21.55;;;;;;;;;;5031863;28;20052;-74
2023/01/21 04:04:50;;;;;;;43.67;22.00;;;;;;;;;;5020333;28;20456;-74
2023/01/21 04:07:16;;;;;;;43.53;21.30;;;;;;;;;;5013341;28;20046;-74
2023/01/21 04:09:42;;;;;;;48.00;21.40;;;;;;;;;;5014056;28;20107;-73
2023/01/21 04:12:08;;;;;;;44.10;21.00;;;;;;;;;;5014033;28;20081;-74
2023/01/21 04:14:34;;;;;;;43.95;21.92;;;;;;;;;;5013490;28;20431;-74
2023/01/21 04:17:00;;;;;;;42.10;21.05;;;;;;;;;;5013941;28;20129;-74
2023/01/21 04:19:26;;;;;;;42.92;21.00;;;;;;;;;;5028739;28;20107;-73
2023/01/21 04:21:52;;;;;;;43.25;20.98;;;;;;;;;;5019938;28;20456;-73
2023/01/21 04:24:18;;;;;;;36.72;18.55;;;;;;;;;;5018423;28;20469;-74
2023/01/21 04:26:44;;;;;;;42.38;20.50;;;;;;;;;;5020286;28;20047;-74
2023/01/21 04:29:10;;;;;;;40.67;19.38;;;;;;;;;;5045113;28;20477;-74
2023/01/21 04:31:37;;;;;;;45.25;19.42;;;;;;;;;;5033786;28;20053;-74
2023/01/21 04:34:03;;;;;;;35.15;17.75;;;;;;;;;;5035641;28;20099;-74
2023/01/21 04:36:29;;;;;;;41.60;19.15;;;;;;;;;;5035752;28;20095;-74
2023/01/21 04:38:55;;;;;;;36.33;18.05;;;;;;;;;;5035967;28;20110;-74
2023/01/21 04:41:21;;;;;;;39.58;19.45;;;;;;;;;;5035158;28;20116;-74
2023/01/21 04:43:47;;;;;;;39.08;18.65;;;;;;;;;;5037052;28;20568;-74
2023/01/21 04:46:13;;;;;;;40.85;19.17;;;;;;;;;;5036794;28;20073;-74
2023/01/21 04:48:39;;;;;;;43.25;17.83;;;;;;;;;;5020305;28;20062;-74
2023/01/21 04:51:05;;;;;;;36.85;17.90;;;;;;;;;;5036583;28;20053;-74
2023/01/21 04:53:31;;;;;;;45.58;18.38;;;;;;;;;;5018469;28;20045;-74
2023/01/21 04:55:57;;;;;;;44.85;18.08;;;;;;;;;;5024390;28;20046;-74
2023/01/21 04:58:23;;;;;;;44.75;17.50;;;;;;;;;;5036881;28;20057;-74
2023/01/21 05:00:49;;;;;;;41.63;17.15;;;;;;;;;;5036687;28;20124;-74
2023/01/21 05:03:16;;;;;;;35.92;16.30;;;;;;;;;;5031765;28;20041;-74
2023/01/21 05:05:42;;;;;;;41.08;18.77;;;;;;;;;;5016982;28;20041;-74
2023/01/21 05:08:08;;;;;;;40.92;17.85;;;;;;;;;;5017279;28;20038;-74
2023/01/21 05:10:34;;;;;;;41.38;17.65;;;;;;;;;;5016844;28;20412;-74
2023/01/21 05:13:00;;;;;;;39.60;18.45;;;;;;;;;;5016952;28;20129;-74
2023/01/21 05:15:26;;;;;;;42.72;19.02;;;;;;;;;;5016935;28;20073;-74
2023/01/21 05:17:52;;;;;;;38.05;17.10;;;;;;;;;;5019305;28;20505;-74
2023/01/21 05:20:18;;;;;;;34.15;16.25;;;;;;;;;;5032035;28;20198;-74
2023/01/21 05:22:48;;;;;;;35.22;16.65;;;;;;;;;;5017401;28;20049;-74
2023/01/21 05:25:14;;;;;;;37.67;17.42;;;;;;;;;;5023143;28;20041;-74
2023/01/21 05:27:40;;;;;;;38.60;17.52;;;;;;;;;;5036029;28;20084;-74
2023/01/21 05:30:07;;;;;;;38.80;17.00;;;;;;;;;;5035310;28;20045;-74
2023/01/21 05:32:35;;;;;;;48.95;21.00;;;;;;;;;;5027426;28;20543;-74
2023/01/21 05:35:01;;;;;;;42.78;19.75;;;;;;;;;;5035830;28;20054;-74
2023/01/21 05:37:27;;;;;;;45.55;19.80;;;;;;;;;;5031668;28;20115;-74
2023/01/21 05:39:53;;;;;;;40.95;18.92;;;;;;;;;;5034885;28;20476;-74
2023/01/21 05:42:19;;;;;;;39.80;19.23;;;;;;;;;;5035793;28;20476;-74
2023/01/21 05:44:45;;;;;;;42.03;18.90;;;;;;;;;;5035748;28;20042;-74
2023/01/21 05:47:11;;;;;;;36.97;18.35;;;;;;;;;;5026396;28;20107;-74
2023/01/21 05:49:37;;;;;;;39.55;18.92;;;;;;;;;;5016178;28;20050;-74
2023/01/21 05:52:03;;;;;;;38.90;18.15;;;;;;;;;;5028466;28;20052;-74
2023/01/21 05:54:29;;;;;;;46.38;20.60;;;;;;;;;;5030990;28;20485;-74
2023/01/21 05:56:55;;;;;;;44.67;20.23;;;;;;;;;;5015975;28;20045;-74
2023/01/21 05:59:21;;;;;;;47.80;20.42;;;;;;;;;;5015770;28;20045;-74
2023/01/21 06:01:47;;;;;;;46.90;21.50;;;;;;;;;;5015550;28;20042;-74
2023/01/21 06:04:13;;;;;;;48.05;22.15;;;;;;;;;;5015736;28;20081;-74
2023/01/21 06:06:40;;;;;;;50.05;21.13;;;;;;;;;;5014239;28;20452;-74
2023/01/21 06:09:06;;;;;;;47.35;22.77;;;;;;;;;;5014247;28;20436;-74
2023/01/21 06:11:32;;;;;;;52.20;23.30;;;;;;;;;;5015581;28;20052;-74
2023/01/21 06:13:58;;;;;;;52.00;22.67;;;;;;;;;;5022205;28;20044;-74
2023/01/21 06:16:24;;;;;;;51.33;22.80;;;;;;;;;;5029819;28;20048;-74
2023/01/21 06:18:50;;;;;;;46.53;21.73;;;;;;;;;;5031128;28;20132;-74
2023/01/21 06:21:16;;;;;;;51.95;22.42;;;;;;;;;;5026280;28;20050;-74
2023/01/21 06:23:45;;;;;;;51.17;22.00;;;;;;;;;;5016000;28;20046;-74
2023/01/21 06:26:11;;;;;;;48.22;22.08;;;;;;;;;;5015334;28;20049;-74
2023/01/21 06:28:37;;;;;;;51.20;21.70;;;;;;;;;;5015381;28;20049;-74
2023/01/21 06:31:03;;;;;;;61.90;23.48;;;;;;;;;;5017879;28;20041;-74
2023/01/21 06:33:29;;;;;;;51.95;23.02;;;;;;;;;;5034931;28;20041;-74
2023/01/21 06:35:55;;;;;;;50.92;21.75;;;;;;;;;;5032448;28;20123;-74
2023/01/21 06:38:21;;;;;;;56.38;22.70;;;;;;;;;;5031376;28;20153;-74
2023/01/21 06:40:47;;;;;;;50.83;22.05;;;;;;;;;;5033746;28;20132;-74
2023/01/21 06:43:13;;;;;;;48.30;22.95;;;;;;;;;;5034075;28;20535;-74
2023/01/21 06:45:39;;;;;;;54.83;24.42;;;;;;;;;;5034617;28;20408;-74
2023/01/21 06:48:05;;;;;;;56.58;22.92;;;;;;;;;;5034578;28;20492;-74
2023/01/21 06:50:32;;;;;;;46.03;22.70;;;;;;;;;;5033797;28;20408;-74
2023/01/21 06:52:58;;;;;;;56.72;23.77;;;;;;;;;;5016311;28;20042;-74
2023/01/21 06:55:24;;;;;;;50.58;22.58;;;;;;;;;;5034149;28;20081;-75
2023/01/21 06:57:50;;;;;;;48.78;22.08;;;;;;;;;;5044302;28;20092;-76
2023/01/21 07:00:17;;;;;;;53.20;22.80;;;;;;;;;;5014857;28;20050;-74
2023/01/21 07:02:43;;;;;;;48.50;22.58;;;;;;;;;;5023248;28;20045;-76
2023/01/21 07:05:09;;;;;;;47.92;21.75;;;;;;;;;;5014308;28;20133;-75
2023/01/21 07:07:35;;;;;;;51.25;23.77;;;;;;;;;;5032538;28;20120;-74
2023/01/21 07:10:01;;;;;;;49.60;22.33;;;;;;;;;;5033927;28;20041;-74
2023/01/21 07:12:27;;;;;;;50.15;22.30;;;;;;;;;;5034040;28;20045;-74
2023/01/21 07:14:53;;;;;;;54.85;23.45;;;;;;;;;;5033492;28;20104;-74
2023/01/21 07:17:20;;;;;;;56.58;23.50;;;;;;;;;;5031729;28;20392;-74
2023/01/21 07:19:46;;;;;;;47.78;21.35;;;;;;;;;;5021449;28;20411;-76
2023/01/21 07:22:12;;;;;;;47.00;20.20;;;;;;;;;;5024959;28;20445;-74
2023/01/21 07:24:38;;;;;;;47.63;21.23;;;;;;;;;;5016659;28;20524;-74
2023/01/21 07:27:05;;;;;;;52.65;21.48;;;;;;;;;;5019095;28;20045;-74
2023/01/21 07:29:33;;;;;;;45.63;20.98;;;;;;;;;;5017178;28;20159;-74
2023/01/21 07:31:59;;;;;;;46.97;22.35;;;;;;;;;;5025669;28;20521;-74
2023/01/21 07:34:25;;;;;;;48.75;22.02;;;;;;;;;;5027715;28;20045;-74
2023/01/21 07:36:51;;;;;;;51.03;22.98;;;;;;;;;;5034289;28;20052;-74
2023/01/21 07:39:17;;;;;;;51.28;23.42;;;;;;;;;;5033980;28;20045;-74
2023/01/21 07:41:47;;;;;;;52.90;24.25;;;;;;;;;;5028656;28;20045;-74
2023/01/21 07:44:13;;;;;;;49.55;24.33;;;;;;;;;;5014120;28;20046;-74
2023/01/21 07:46:39;;;;;;;51.17;24.70;;;;;;;;;;5018274;28;20077;-74
2023/01/21 07:49:05;;;;;;;53.13;24.30;;;;;;;;;;5013749;28;20038;-74
2023/01/21 07:51:31;;;;;;;55.65;24.70;;;;;;;;;;5025799;28;20443;-74
2023/01/21 07:53:57;;;;;;;51.75;23.05;;;;;;;;;;5032297;28;20048;-74
2023/01/21 07:56:25;;;;;;;48.55;23.20;;;;;;;;;;5032180;28;20049;-75
2023/01/21 07:58:51;;;;;;;51.13;23.67;;;;;;;;;;5020084;28;20050;-74
2023/01/21 08:01:17;;;;;;;46.13;22.63;;;;;;;;;;5021716;28;20102;-74
2023/01/21 08:03:44;;;;;;;49.28;22.00;;;;;;;;;;5033296;28;20045;-75
2023/01/21 08:06:10;;;;;;;45.90;23.02;;;;;;;;;;5021882;28;20049;-74
2023/01/21 08:08:36;;;;;;;48.35;23.55;;;;;;;;;;5021602;28;20121;-75
2023/01/21 08:11:02;;;;;;;49.03;22.45;;;;;;;;;;5014573;28;20042;-75
2023/01/21 08:13:28;;;;;;;47.80;21.92;;;;;;;;;;5023440;28;20500;-79
2023/01/21 08:15:55;;;;;;;53.33;23.95;;;;;;;;;;5020019;28;20045;-81
2023/01/21 08:18:22;;;;;;;51.95;23.60;;;;;;;;;;5012080;28;20092;-76
2023/01/21 08:20:49;;;;;;;51.60;24.85;;;;;;;;;;5012770;28;20057;-76
2023/01/21 08:23:15;;;;;;;55.42;25.52;;;;;;;;;;5013507;28;20184;-76
2023/01/21 08:25:41;;;;;;;52.88;23.13;;;;;;;;;;5013984;28;20388;-76
2023/01/21 08:28:07;;;;;;;51.00;23.02;;;;;;;;;;5013911;28;20381;-75
2023/01/21 08:30:33;;;;;;;52.78;25.08;;;;;;;;;;5014001;28;20049;-76
2023/01/21 08:32:59;;;;;;;53.22;24.65;;;;;;;;;;5014010;28;20489;-75
2023/01/21 08:35:25;;;;;;;52.33;24.98;;;;;;;;;;5014279;28;20136;-76
2023/01/21 08:37:54;;;;;;;63.03;28.13;;;;;;;;;;5023423;28;20389;-78
2023/01/21 08:40:20;;;;;;;58.03;26.85;;;;;;;;;;5014354;28;20053;-78
2023/01/21 08:42:46;;;;;;;56.63;26.95;;;;;;;;;;5014487;28;20052;-76
2023/01/21 08:45:12;;;;;;;55.80;26.88;;;;;;;;;;5017744;28;20038;-76
2023/01/21 08:47:38;;;;;;;58.83;27.60;;;;;;;;;;5013589;28;20073;-77
2023/01/21 08:50:06;;;;;;;53.22;24.88;;;;;;;;;;5013716;28;20042;-76
2023/01/21 08:52:32;;;;;;;56.03;24.48;;;;;;;;;;5013878;28;20045;-77
2023/01/21 08:54:58;;;;;;;53.42;25.05;;;;;;;;;;5013791;28;20091;-78
2023/01/21 08:57:24;;;;;;;54.83;25.42;;;;;;;;;;5031663;28;20045;-76
2023/01/21 08:59:50;;;;;;;51.83;25.73;;;;;;;;;;5027873;28;20099;-76
2023/01/21 09:02:16;;;;;;;51.08;25.02;;;;;;;;;;5013080;28;20034;-76
2023/01/21 09:04:42;;;;;;;46.28;22.60;;;;;;;;;;5011895;28;20046;-76
2023/01/21 09:07:11;;;;;;;48.40;21.98;;;;;;;;;;5013586;28;20056;-76
2023/01/21 09:09:37;;;;;;;47.88;23.48;;;;;;;;;;5013630;28;20135;-76
2023/01/21 09:12:06;;;;;;;44.03;23.05;;;;;;;;;;5012898;28;20041;-76
2023/01/21 09:14:32;;;;;;;48.10;23.67;;;;;;;;;;5002183;28;20107;-76
2023/01/21 09:16:58;;;;;;;46.95;23.00;;;;;;;;;;5012307;28;20050;-76
2023/01/21 09:19:25;;;;;;;48.45;22.88;;;;;;;;;;5015212;28;20100;-78
2023/01/21 09:21:53;;;;;;;44.75;22.75;;;;;;;;;;5027230;28;20046;-76
2023/01/21 09:24:19;;;;;;;48.70;22.35;;;;;;;;;;5034937;28;20042;-75
2023/01/21 09:26:45;;;;;;;43.33;23.48;;;;;;;;;;5034030;28;20388;-75
2023/01/21 09:29:11;;;;;;;50.47;22.05;;;;;;;;;;5016045;28;20473;-76
2023/01/21 09:31:37;;;;;;;44.03;22.35;;;;;;;;;;5036029;28;20534;-76
2023/01/21 09:34:04;;;;;;;47.97;23.10;;;;;;;;;;5037063;28;20049;-83
2023/01/21 09:36:31;;;;;;;46.75;22.70;;;;;;;;;;5026096;28;20084;-78
2023/01/21 09:38:58;;;;;;;46.80;22.02;;;;;;;;;;5016513;28;20049;-75
2023/01/21 09:41:29;;;;;;;47.72;21.88;;;;;;;;;;5017205;28;20037;-75
2023/01/21 09:43:55;;;;;;;43.58;20.75;;;;;;;;;;5016132;28;20081;-75
2023/01/21 09:46:29;;;;;;;41.45;21.55;;;;;;;;;;5016618;28;20080;-75
2023/01/21 09:48:56;;;;;;;44.00;20.85;;;;;;;;;;5015661;28;20038;-75
2023/01/21 09:51:28;;;;;;;41.88;20.25;;;;;;;;;;5016226;28;20042;-75
2023/01/21 09:53:55;;;;;;;39.80;19.42;;;;;;;;;;5016056;28;20077;-75
2023/01/21 09:56:29;;;;;;;44.80;21.35;;;;;;;;;;5014658;28;20128;-75
2023/01/21 09:59:14;;;;;;;44.25;21.38;;;;;;;;;;5014561;28;20107;-75
2023/01/21 10:01:40;;;;;;;40.78;21.98;;;;;;;;;;5016136;28;20046;-75
2023/01/21 10:04:25;;;;;;;38.83;21.40;;;;;;;;;;5015811;28;20096;-75
2023/01/21 10:06:53;;;;;;;41.47;20.42;;;;;;;;;;5014618;28;20046;-75
2023/01/21 10:09:19;;;;;;;38.03;19.25;;;;;;;;;;5024086;28;20103;-75
2023/01/21 10:11:58;;;;;;;36.45;18.50;;;;;;;;;;5050757;28;20049;-75
2023/01/21 10:14:39;;;;;;;35.53;17.80;;;;;;;;;;5050928;28;20404;-75
2023/01/21 10:17:08;;;;;;;27.92;13.45;;;;;;;;;;5035711;28;20042;-75
2023/01/21 10:19:41;;;;;;;27.85;14.07;;;;;;;;;;5050305;28;20064;-76
2023/01/21 10:22:28;;;;;;;30.50;14.07;;;;;;;;;;5035161;28;20073;-76
2023/01/21 10:25:03;;;;;;;23.42;12.32;;;;;;;;;;5034320;28;20045;-75
2023/01/21 10:27:32;;;;;;;20.65;10.80;;;;;;;;;;5019027;28;20141;-77
2023/01/21 10:30:01;;;;;;;19.92;10.57;;;;;;;;;;5014703;28;20373;-78
2023/01/21 10:32:27;;;;;;;19.65;10.43;;;;;;;;;;5021377;28;20049;-77
2023/01/21 10:34:54;;;;;;;15.88;9.68;;;;;;;;;;5021612;28;20042;-81
2023/01/21 10:37:20;;;;;;;19.40;9.55;;;;;;;;;;5020530;28;20073;-81
2023/01/21 10:39:52;;;;;;;18.02;9.95;;;;;;;;;;5021442;28;20045;-78
2023/01/21 10:42:37;;;;;;;19.67;10.23;;;;;;;;;;5019440;28;20097;-77
2023/01/21 10:45:11;;;;;;;17.92;9.60;;;;;;;;;;5020439;28;20069;-79
2023/01/21 10:47:50;;;;;;;18.27;10.35;;;;;;;;;;5038344;28;20049;-82
2023/01/21 10:50:22;;;;;;;21.08;11.23;;;;;;;;;;5035652;28;20099;-82
2023/01/21 10:53:06;;;;;;;20.88;10.23;;;;;;;;;;5021439;28;20049;-79
2023/01/21 10:55:50;;;;;;;18.02;10.65;;;;;;;;;;5027375;28;20416;-82
2023/01/21 10:58:16;;;;;;;17.92;10.45;;;;;;;;;;5039655;28;20096;-78
2023/01/21 11:00:46;;;;;;;18.77;10.63;;;;;;;;;;5038830;28;20050;-79
2023/01/21 11:03:34;;;;;;;16.67;10.48;;;;;;;;;;5019937;28;20506;-79
2023/01/21 11:06:03;;;;;;;19.00;11.40;;;;;;;;;;5037745;28;20084;-77
2023/01/21 11:08:29;;;;;;;18.25;10.32;;;;;;;;;;5028485;28;20073;-78
2023/01/21 11:10:56;;;;;;;18.60;10.20;;;;;;;;;;5025923;28;20045;-78
2023/01/21 11:13:23;;;;;;;21.63;10.88;;;;;;;;;;5019174;28;20117;-78
2023/01/21 11:15:55;;;;;;;15.77;10.23;;;;;;;;;;5027034;28;20557;-78
2023/01/21 11:18:37;;;;;;;18.27;10.70;;;;;;;;;;5019744;28;20049;-82
2023/01/21 11:21:11;;;;;;;16.17;10.38;;;;;;;;;;5035457;28;20053;-78
2023/01/21 11:23:38;;;;;;;16.77;10.93;;;;;;;;;;5034747;28;20046;-78
2023/01/21 11:26:16;;;;;;;20.75;11.30;;;;;;;;;;5033703;28;20412;-78
2023/01/21 11:28:42;;;;;;;18.58;10.60;;;;;;;;;;5034431;28;20048;-78
2023/01/21 11:31:13;;;;;;;14.77;9.57;;;;;;;;;;5024568;28;20132;-78
2023/01/21 11:33:39;;;;;;;17.55;10.55;;;;;;;;;;5022402;28;20041;-78
2023/01/21 11:36:09;;;;;;;18.58;10.38;;;;;;;;;;5024148;28;20045;-81
2023/01/21 11:38:36;;;;;;;16.42;9.50;;;;;;;;;;5033540;28;20407;-78
2023/01/21 11:41:11;;;;;;;16.20;10.10;;;;;;;;;;5033745;28;20120;-78
2023/01/21 11:43:57;;;;;;;14.10;9.23;;;;;;;;;;5033549;28;20506;-78
2023/01/21 11:46:32;;;;;;;13.77;8.48;;;;;;;;;;5027937;28;20045;-79
2023/01/21 11:49:07;;;;;;;15.68;8.50;;;;;;;;;;5024089;28;20541;-78
2023/01/21 11:51:41;;;;;;;15.43;8.90;;;;;;;;;;5029786;28;20073;-78
2023/01/21 11:54:20;;;;;;;14.63;8.77;;;;;;;;;;5014880;28;20449;-77
2023/01/21 11:57:00;;;;;;;18.17;9.18;;;;;;;;;;5033368;28;20368;-77
2023/01/21 11:59:37;;;;;;;15.32;9.15;;;;;;;;;;5016295;28;20076;-77
2023/01/21 12:02:18;;;;;;;15.10;9.48;;;;;;;;;;5024629;28;20049;-76
2023/01/21 12:04:53;;;;;;;16.33;9.07;;;;;;;;;;5032468;28;20038;-77
2023/01/21 12:07:24;;;;;;;15.75;9.32;;;;;;;;;;5020664;28;20041;-80
2023/01/21 12:09:55;;;;;;;14.30;8.95;;;;;;;;;;5015484;28;20120;-77
2023/01/21 12:12:24;;;;;;;16.08;10.13;;;;;;;;;;5032085;28;20050;-78
2023/01/21 12:14:50;;;;;;;15.77;9.52;;;;;;;;;;5018383;28;20457;-77
2023/01/21 12:17:21;;;;;;;13.27;8.70;;;;;;;;;;5021380;28;20112;-80
2023/01/21 12:19:47;;;;;;;13.43;8.48;;;;;;;;;;5025692;28;20104;-77
2023/01/21 12:22:34;;;;;;;8.95;5.97;;;;;;;;;;5030196;28;20057;-77
2023/01/21 12:25:06;;;;;;;7.05;4.80;;;;;;;;;;5015065;28;20121;-77
2023/01/21 12:27:51;;;;;;;7.80;5.20;;;;;;;;;;5031296;28;20045;-77
2023/01/21 12:30:26;;;;;;;6.85;5.07;;;;;;;;;;5015938;28;20046;-77
2023/01/21 12:32:55;;;;;;;7.57;5.47;;;;;;;;;;5020844;28;20554;-76
2023/01/21 12:35:33;;;;;;;6.82;4.72;;;;;;;;;;5022844;28;20100;-76
2023/01/21 12:38:04;;;;;;;7.15;4.78;;;;;;;;;;5026400;28;20045;-76
2023/01/21 12:40:32;;;;;;;8.07;5.00;;;;;;;;;;5006669;28;20050;-76
2023/01/21 12:43:02;;;;;;;7.20;5.25;;;;;;;;;;5012514;28;20116;-76
2023/01/21 12:45:30;;;;;;;6.13;4.80;;;;;;;;;;5013536;28;20512;-76
2023/01/21 12:48:00;;;;;;;7.05;4.82;;;;;;;;;;5013651;28;20121;-77
2023/01/21 12:50:26;;;;;;;7.18;5.55;;;;;;;;;;5014082;28;20048;-76
2023/01/21 12:52:52;;;;;;;7.57;5.55;;;;;;;;;;5014711;28;20125;-77
2023/01/21 12:55:50;;;;;;;8.60;4.90;;;;;;;;;;5015722;28;20472;-77
2023/01/21 12:58:18;;;;;;;7.90;5.25;;;;;;;;;;4996750;28;20046;-76
2023/01/21 13:00:46;;;;;;;6.72;4.70;;;;;;;;;;5016899;28;20054;-77
2023/01/21 13:03:32;;;;;;;8.10;5.18;;;;;;;;;;5017194;28;20038;-77
2023/01/21 13:06:11;;;;;;;7.25;5.25;;;;;;;;;;5017644;28;20096;-78
2023/01/21 13:08:56;;;;;;;5.95;4.68;;;;;;;;;;5018467;28;20045;-77
2023/01/21 13:11:25;;;;;;;6.80;4.78;;;;;;;;;;5022492;28;20116;-76
2023/01/21 13:13:54;;;;;;;5.35;4.13;;;;;;;;;;5017190;28;20070;-76
2023/01/21 13:16:21;;;;;;;5.72;4.70;;;;;;;;;;5016858;28;20042;-77
2023/01/21 13:18:50;;;;;;;6.68;4.10;;;;;;;;;;5017058;28;20079;-77
2023/01/21 13:21:22;;;;;;;5.75;4.28;;;;;;;;;;5028430;28;20041;-76
2023/01/21 13:23:58;;;;;;;5.90;4.40;;;;;;;;;;5026679;28;20053;-76
2023/01/21 13:26:24;;;;;;;5.95;4.65;;;;;;;;;;5017137;28;20042;-76
2023/01/21 13:29:00;;;;;;;7.82;5.13;;;;;;;;;;5020834;28;20042;-76
2023/01/21 13:31:26;;;;;;;6.72;5.18;;;;;;;;;;5026176;28;20042;-76
2023/01/21 13:34:07;;;;;;;6.05;4.95;;;;;;;;;;5016500;28;20042;-76
2023/01/21 13:36:45;;;;;;;6.88;4.97;;;;;;;;;;5024251;28;20046;-76
2023/01/21 13:39:23;;;;;;;8.02;4.95;;;;;;;;;;5016362;28;20498;-77
2023/01/21 13:41:56;;;;;;;6.70;5.07;;;;;;;;;;5038115;28;20198;-76
2023/01/21 13:44:44;;;;;;;6.03;4.50;;;;;;;;;;5025865;28;20053;-75
2023/01/21 13:47:34;;;;;;;6.78;4.50;;;;;;;;;;5024442;28;20046;-75
2023/01/21 13:50:17;;;;;;;7.05;4.70;;;;;;;;;;5023576;28;20064;-75
2023/01/21 13:52:52;;;;;;;6.93;4.55;;;;;;;;;;5032855;28;20065;-76
2023/01/21 13:55:21;;;;;;;6.72;4.88;;;;;;;;;;5039202;28;20046;-76
2023/01/21 13:58:04;;;;;;;6.80;4.70;;;;;;;;;;5038163;28;20048;-76
2023/01/21 14:00:40;;;;;;;6.53;5.13;;;;;;;;;;5032290;28;20045;-76
2023/01/21 14:03:09;;;;;;;5.60;4.97;;;;;;;;;;5030879;28;20056;-77
2023/01/21 14:05:35;;;;;;;8.50;5.60;;;;;;;;;;5028584;28;20045;-76
2023/01/21 14:08:05;;;;;;;7.57;5.65;;;;;;;;;;5028143;28;20040;-76
2023/01/21 14:10:45;;;;;;;8.02;5.80;;;;;;;;;;5015444;28;20049;-76
2023/01/21 14:13:20;;;;;;;8.40;6.22;;;;;;;;;;5024352;28;20419;-76
2023/01/21 14:15:46;;;;;;;7.35;5.90;;;;;;;;;;5019853;28;20049;-76
2023/01/21 14:18:12;;;;;;;10.95;6.57;;;;;;;;;;5022300;28;20096;-80
2023/01/21 14:20:47;;;;;;;8.55;6.57;;;;;;;;;;5035676;28;20525;-78
2023/01/21 14:23:32;;;;;;;9.90;6.85;;;;;;;;;;5035155;28;20041;-78
2023/01/21 14:26:06;;;;;;;9.57;6.05;;;;;;;;;;5034764;28;20502;-78
2023/01/21 14:28:42;;;;;;;7.88;5.80;;;;;;;;;;5032387;28;20044;-78
2023/01/21 14:31:11;;;;;;;7.97;6.05;;;;;;;;;;5020222;28;20041;-78
2023/01/21 14:33:46;;;;;;;8.20;5.70;;;;;;;;;;5015761;28;20096;-78
2023/01/21 14:36:18;;;;;;;7.53;5.55;;;;;;;;;;5015437;28;20038;-78
2023/01/21 14:38:58;;;;;;;9.85;6.20;;;;;;;;;;5026581;28;20125;-80